Avoca, Illinois
Current Conditions -  °F | °C
As of 12:35 PM on Thursday 30 Oct 2014 (Local Time) from KPNT Reporting Station
Overcast Overcast  
Wind Chill:   Ceiling: 9000
Heat Index: 10°   Visibility: 10mi
Dew Point:   Wind: 7mph
Humidity: 63%   Direction: 200°SSW
Pressure: 30.12"   Gusts: NA
Location:  40.7318°N, 88.524°W
Report Text: KPNT 301735Z AUTO 20006KT 10SM OVC090 10/03 A3012 RMK AO2 T00970029
Loading
Personal Weather Stations






























Interactive Weather Map
Tropical Storm Tracking
New forecast layout! Learn more

10-Day Weather Forecast

Advertisements
Track Severe Weather on mobile